Highmore, South Dakota
Current Conditions -  °F | °C
As of 6:53 AM on Friday 31 Oct 2014 (Local Time) from KPIR Reporting Station
Moderate Fog Moderate Fog  
Wind Chill: 16°   Ceiling: 100
Heat Index: 16°   Visibility: 0.25mi
Dew Point: 15°   Wind: 0mph
Humidity: 96%   Direction: NA
Pressure: 30.56"   Gusts: NA
Location:  44.52°N, 99.44°W
Report Text: KPIR 311153Z AUTO 00000KT 1/4SM FZFG VV001 M09/M09 A3056 RMK AO2 SLP372 I1001 I6001 T10891094 11028 21100 56005
Loading
Personal Weather Stations






























Interactive Weather Map
Tropical Storm Tracking
New forecast layout! Learn more

10-Day Weather Forecast

Advertisements
Track Severe Weather on mobile